createdAt,value
2019-02-18T00:00:06.747Z,4.73
2019-02-18T00:01:06.736Z,4.67
2019-02-18T00:02:06.724Z,4.70
2019-02-18T00:03:06.713Z,4.73
2019-02-18T00:04:06.702Z,4.61
2019-02-18T00:05:06.691Z,4.65
2019-02-18T00:06:06.683Z,4.64
2019-02-18T00:07:14.023Z,4.69
2019-02-18T00:08:07.658Z,4.62
2019-02-18T00:09:06.649Z,4.62
2019-02-18T00:10:06.636Z,4.62
2019-02-18T00:11:06.625Z,4.62
2019-02-18T00:12:06.614Z,4.59
2019-02-18T00:13:06.602Z,4.59
2019-02-18T00:14:06.593Z,4.62
2019-02-18T00:15:06.581Z,4.64
2019-02-18T00:16:06.570Z,4.62
2019-02-18T00:17:06.559Z,4.64
2019-02-18T00:18:06.548Z,4.58
2019-02-18T00:19:06.537Z,4.57
2019-02-18T00:20:06.528Z,4.52
2019-02-18T00:21:06.517Z,4.40
2019-02-18T00:22:06.504Z,4.55
2019-02-18T00:23:06.493Z,4.61
2019-02-18T00:24:06.483Z,4.47
2019-02-18T00:25:06.477Z,4.58
2019-02-18T00:26:06.460Z,4.50
2019-02-18T00:27:06.458Z,4.52
2019-02-18T00:28:06.440Z,4.47
2019-02-18T00:29:06.432Z,4.61
2019-02-18T00:30:06.416Z,4.52
2019-02-18T00:31:06.413Z,4.46
2019-02-18T00:32:06.399Z,4.58
2019-02-18T00:33:06.382Z,4.43
2019-02-18T00:34:06.372Z,4.47
2019-02-18T00:35:06.384Z,4.51
2019-02-18T00:36:06.352Z,4.46
2019-02-18T00:37:06.338Z,4.51
2019-02-18T00:38:06.328Z,4.43
2019-02-18T00:39:06.316Z,4.43
2019-02-18T00:40:06.306Z,4.43
2019-02-18T00:41:06.295Z,4.39
2019-02-18T00:42:06.283Z,4.29
2019-02-18T00:43:06.272Z,4.32
2019-02-18T00:44:06.262Z,4.19
2019-02-18T00:45:06.253Z,4.29
2019-02-18T00:46:06.240Z,4.22
2019-02-18T00:47:06.229Z,4.18
2019-02-18T00:48:06.218Z,4.18
2019-02-18T00:49:06.208Z,4.19
2019-02-18T00:50:06.196Z,4.26
2019-02-18T00:51:06.186Z,4.19
2019-02-18T00:52:06.174Z,4.14
2019-02-18T00:53:06.164Z,4.08
2019-02-18T00:54:06.151Z,4.14
2019-02-18T00:55:06.238Z,4.06
2019-02-18T00:56:06.129Z,4.08
2019-02-18T00:57:06.120Z,4.04
2019-02-18T00:58:06.108Z,4.01
2019-02-18T00:59:06.098Z,4.01
2019-02-18T01:00:06.088Z,4.03
2019-02-18T01:01:06.077Z,3.98
2019-02-18T01:02:06.065Z,4.04
2019-02-18T01:03:06.056Z,4.00
2019-02-18T01:04:06.045Z,3.97
2019-02-18T01:05:06.036Z,3.97
2019-02-18T01:06:06.021Z,3.89
2019-02-18T01:07:06.015Z,3.83
2019-02-18T01:08:05.998Z,3.88
2019-02-18T01:09:05.987Z,3.88
2019-02-18T01:10:05.982Z,3.75
2019-02-18T01:11:05.966Z,3.79
2019-02-18T01:12:05.958Z,3.86
2019-02-18T01:13:05.943Z,3.86
2019-02-18T01:14:05.933Z,3.82
2019-02-18T01:15:05.921Z,3.72
2019-02-18T01:16:05.909Z,3.76
2019-02-18T01:17:05.901Z,3.75
2019-02-18T01:18:05.893Z,3.76
2019-02-18T01:19:05.877Z,3.82
2019-02-18T01:20:05.866Z,3.72
2019-02-18T01:21:05.856Z,3.79
2019-02-18T01:22:05.845Z,3.78
2019-02-18T01:23:05.836Z,3.85
2019-02-18T01:24:05.822Z,3.80
2019-02-18T01:25:05.812Z,3.78
2019-02-18T01:26:05.800Z,3.76
2019-02-18T01:27:05.790Z,3.82
2019-02-18T01:28:05.779Z,3.85
2019-02-18T01:29:05.770Z,3.79
2019-02-18T01:30:05.767Z,3.72
2019-02-18T01:31:05.745Z,3.75
2019-02-18T01:32:05.735Z,3.71
2019-02-18T01:33:05.792Z,3.68
2019-02-18T01:34:05.714Z,3.68
2019-02-18T01:35:05.701Z,3.65
2019-02-18T01:36:05.692Z,3.67
2019-02-18T01:37:05.679Z,3.58
2019-02-18T01:38:05.668Z,3.60
2019-02-18T01:39:05.658Z,3.62
2019-02-18T01:40:05.648Z,3.62
2019-02-18T01:41:05.636Z,3.60
2019-02-18T01:42:05.624Z,3.50
2019-02-18T01:43:05.616Z,3.57
2019-02-18T01:44:05.604Z,3.60
2019-02-18T01:45:05.593Z,3.65
2019-02-18T01:46:05.581Z,3.54
2019-02-18T01:47:05.570Z,3.64
2019-02-18T01:48:05.561Z,3.53
2019-02-18T01:49:05.547Z,3.58
2019-02-18T01:50:05.538Z,3.53
2019-02-18T01:51:05.530Z,3.54
2019-02-18T01:52:05.517Z,3.53
2019-02-18T01:53:05.516Z,3.53
2019-02-18T01:54:05.493Z,3.47
2019-02-18T01:55:05.484Z,3.57
2019-02-18T01:56:05.473Z,3.53
2019-02-18T01:57:05.460Z,3.53
2019-02-18T01:58:05.449Z,3.53
2019-02-18T01:59:05.439Z,3.52
2019-02-18T02:00:05.427Z,3.42
2019-02-18T02:01:05.416Z,3.44
2019-02-18T02:02:05.405Z,3.39
2019-02-18T02:03:05.394Z,3.44
2019-02-18T02:04:05.383Z,3.40
2019-02-18T02:05:05.380Z,3.39
2019-02-18T02:06:05.361Z,3.42
2019-02-18T02:07:05.351Z,3.39
2019-02-18T02:08:05.339Z,3.25
2019-02-18T02:09:05.330Z,3.30
2019-02-18T02:10:05.319Z,3.34
2019-02-18T02:11:05.315Z,3.27
2019-02-18T02:12:05.297Z,3.24
2019-02-18T02:13:05.285Z,3.27
2019-02-18T02:14:05.274Z,3.30
2019-02-18T02:15:05.263Z,3.18
2019-02-18T02:16:05.252Z,3.21
2019-02-18T02:17:05.240Z,3.23
2019-02-18T02:18:05.234Z,3.23
2019-02-18T02:19:05.219Z,3.13
2019-02-18T02:20:05.208Z,3.10
2019-02-18T02:21:05.199Z,3.12
2019-02-18T02:22:05.186Z,3.16
2019-02-18T02:23:05.175Z,3.25
2019-02-18T02:24:05.166Z,3.12
2019-02-18T02:25:05.153Z,3.16
2019-02-18T02:26:05.145Z,3.13
2019-02-18T02:27:05.132Z,3.18
2019-02-18T02:28:05.122Z,3.12
2019-02-18T02:29:05.111Z,3.10
2019-02-18T02:30:05.099Z,3.05
2019-02-18T02:31:05.088Z,3.09
2019-02-18T02:32:05.076Z,3.13
2019-02-18T02:33:05.066Z,3.03
2019-02-18T02:34:05.062Z,3.05
2019-02-18T02:35:05.044Z,2.95
2019-02-18T02:36:05.036Z,3.00
2019-02-18T02:37:05.022Z,3.02
2019-02-18T02:38:08.007Z,3.07
2019-02-18T02:39:05.005Z,2.97
2019-02-18T02:40:04.992Z,3.02
2019-02-18T02:41:04.979Z,3.03
2019-02-18T02:42:04.967Z,3.03
2019-02-18T02:43:04.958Z,2.98
2019-02-18T02:44:04.944Z,2.97
2019-02-18T02:45:04.936Z,2.97
2019-02-18T02:46:04.928Z,2.95
2019-02-18T02:47:04.912Z,2.95
2019-02-18T02:48:04.902Z,3.05
2019-02-18T02:49:04.891Z,3.02
2019-02-18T02:50:04.888Z,2.98
2019-02-18T02:51:04.873Z,2.98
2019-02-18T02:52:04.862Z,2.97
2019-02-18T02:53:04.850Z,2.92
2019-02-18T02:54:04.838Z,2.91
2019-02-18T02:55:04.826Z,2.94
2019-02-18T02:56:04.816Z,2.88
2019-02-18T02:57:04.804Z,2.88
2019-02-18T02:58:04.794Z,2.85
2019-02-18T02:59:04.781Z,2.85
2019-02-18T03:00:04.771Z,2.91
2019-02-18T03:01:04.762Z,2.85
2019-02-18T03:02:04.749Z,2.88
2019-02-18T03:03:04.739Z,2.76
2019-02-18T03:04:04.730Z,2.74
2019-02-18T03:05:04.713Z,2.71
2019-02-18T03:06:04.704Z,2.69
2019-02-18T03:07:04.693Z,2.67
2019-02-18T03:08:04.688Z,2.74
2019-02-18T03:09:04.679Z,2.67
2019-02-18T03:10:04.663Z,2.69
2019-02-18T03:11:04.649Z,2.69
2019-02-18T03:12:04.638Z,2.74
2019-02-18T03:13:04.629Z,2.73
2019-02-18T03:14:04.615Z,2.64
2019-02-18T03:15:04.608Z,2.66
2019-02-18T03:16:04.595Z,2.63
2019-02-18T03:17:04.585Z,2.69
2019-02-18T03:18:04.572Z,2.66
2019-02-18T03:19:04.562Z,2.69
2019-02-18T03:20:04.551Z,2.69
2019-02-18T03:21:04.543Z,2.73
2019-02-18T03:22:04.538Z,2.69
2019-02-18T03:23:04.516Z,2.64
2019-02-18T03:24:04.506Z,2.61
2019-02-18T03:25:04.494Z,2.51
2019-02-18T03:26:04.485Z,2.52
2019-02-18T03:27:04.474Z,2.64
2019-02-18T03:28:04.463Z,2.56
2019-02-18T03:29:04.453Z,2.59
2019-02-18T03:30:04.439Z,2.51
2019-02-18T03:31:04.439Z,2.51
2019-02-18T03:32:04.419Z,2.55
2019-02-18T03:33:04.426Z,2.45
2019-02-18T03:34:04.398Z,2.52
2019-02-18T03:35:04.386Z,2.46
2019-02-18T03:36:04.380Z,2.53
2019-02-18T03:37:04.367Z,2.49
2019-02-18T03:38:04.354Z,2.51
2019-02-18T03:39:04.342Z,2.46
2019-02-18T03:40:04.331Z,2.51
2019-02-18T03:41:04.319Z,2.48
2019-02-18T03:42:04.309Z,2.51
2019-02-18T03:43:04.300Z,2.44
2019-02-18T03:44:04.288Z,2.40
2019-02-18T03:45:04.278Z,2.44
2019-02-18T03:46:04.264Z,2.45
2019-02-18T03:47:04.253Z,2.37
2019-02-18T03:48:04.245Z,2.35
2019-02-18T03:49:04.232Z,2.38
2019-02-18T03:50:04.222Z,2.28
2019-02-18T03:51:04.217Z,2.27
2019-02-18T03:52:04.197Z,2.28
2019-02-18T03:53:04.188Z,2.38
2019-02-18T03:54:04.175Z,2.35
2019-02-18T03:55:04.164Z,2.33
2019-02-18T03:56:04.155Z,2.30
2019-02-18T03:57:04.147Z,2.31
2019-02-18T03:58:04.131Z,2.30
2019-02-18T03:59:04.120Z,2.34
2019-02-18T04:00:04.112Z,2.28
2019-02-18T04:01:04.115Z,2.23
2019-02-18T04:02:04.091Z,2.28
2019-02-18T04:03:04.077Z,2.34
2019-02-18T04:04:04.070Z,2.20
2019-02-18T04:05:04.055Z,2.23
2019-02-18T04:06:04.042Z,2.20
2019-02-18T04:07:04.031Z,2.22
2019-02-18T04:08:04.024Z,2.20
2019-02-18T04:09:04.010Z,2.16
2019-02-18T04:10:04.000Z,2.17
2019-02-18T04:11:03.988Z,2.04
2019-02-18T04:12:03.978Z,2.15
2019-02-18T04:13:03.966Z,2.10
2019-02-18T04:14:03.954Z,2.06
2019-02-18T04:15:03.945Z,2.17
2019-02-18T04:16:03.933Z,2.13
2019-02-18T04:17:03.929Z,2.12
2019-02-18T04:18:03.912Z,2.12
2019-02-18T04:19:03.899Z,2.15
2019-02-18T04:20:03.889Z,2.06
2019-02-18T04:21:03.877Z,2.06
2019-02-18T04:22:03.867Z,2.04
2019-02-18T04:23:03.858Z,2.04
2019-02-18T04:24:03.844Z,2.01
2019-02-18T04:25:03.834Z,2.04
2019-02-18T04:26:03.822Z,1.99
2019-02-18T04:27:03.813Z,1.99
2019-02-18T04:28:03.805Z,1.98
2019-02-18T04:29:03.810Z,2.01
2019-02-18T04:30:03.779Z,2.06
2019-02-18T04:31:03.766Z,2.02
2019-02-18T04:32:03.757Z,1.93
2019-02-18T04:33:03.748Z,1.91
2019-02-18T04:34:03.734Z,1.91
2019-02-18T04:35:03.723Z,1.98
2019-02-18T04:36:03.715Z,1.91
2019-02-18T04:37:03.706Z,1.87
2019-02-18T04:38:03.693Z,1.97
2019-02-18T04:39:03.680Z,1.91
2019-02-18T04:40:03.668Z,1.93
2019-02-18T04:41:03.658Z,1.94
2019-02-18T04:42:03.648Z,1.80
2019-02-18T04:43:03.639Z,1.80
2019-02-18T04:44:03.633Z,1.89
2019-02-18T04:45:03.614Z,1.90
2019-02-18T04:46:03.608Z,1.79
2019-02-18T04:47:03.593Z,1.78
2019-02-18T04:48:03.584Z,1.90
2019-02-18T04:49:03.572Z,1.80
2019-02-18T04:50:03.578Z,1.79
2019-02-18T04:51:03.554Z,1.78
2019-02-18T04:52:03.618Z,1.79
2019-02-18T04:53:03.527Z,1.78
2019-02-18T04:54:03.524Z,1.80
2019-02-18T04:55:03.508Z,1.80
2019-02-18T04:56:03.502Z,1.75
2019-02-18T04:57:03.483Z,1.73
2019-02-18T04:58:06.033Z,1.76
2019-02-18T04:59:03.466Z,1.73
2019-02-18T05:00:03.454Z,1.79
2019-02-18T05:01:03.450Z,1.73
2019-02-18T05:02:03.433Z,1.75
2019-02-18T05:03:03.418Z,1.78
2019-02-18T05:04:03.409Z,1.87
2019-02-18T05:05:03.402Z,1.76
2019-02-18T05:06:03.387Z,1.79
2019-02-18T05:07:03.382Z,1.85
2019-02-18T05:08:03.365Z,1.83
2019-02-18T05:09:05.701Z,1.75
2019-02-18T05:10:03.347Z,1.73
2019-02-18T05:11:03.332Z,1.69
2019-02-18T05:12:03.328Z,1.72
2019-02-18T05:13:03.318Z,1.60
2019-02-18T05:14:03.299Z,1.60
2019-02-18T05:15:03.289Z,1.54
2019-02-18T05:16:03.280Z,1.72
2019-02-18T05:17:03.270Z,1.65
2019-02-18T05:18:03.269Z,1.65
2019-02-18T05:19:03.248Z,1.69
2019-02-18T05:20:03.233Z,1.54
2019-02-18T05:21:03.226Z,1.68
2019-02-18T05:22:03.217Z,1.60
2019-02-18T05:23:03.201Z,1.62
2019-02-18T05:24:03.193Z,1.54
2019-02-18T05:25:03.178Z,1.64
2019-02-18T05:26:03.169Z,1.65
2019-02-18T05:27:03.161Z,1.68
2019-02-18T05:28:03.146Z,1.71
2019-02-18T05:29:03.140Z,1.52
2019-02-18T05:30:03.124Z,1.73
2019-02-18T05:31:03.115Z,1.52
2019-02-18T05:32:03.102Z,1.51
2019-02-18T05:33:03.093Z,1.50
2019-02-18T05:34:03.087Z,1.51
2019-02-18T05:35:03.072Z,1.52
2019-02-18T05:36:03.061Z,1.51
2019-02-18T05:37:03.051Z,1.54
2019-02-18T05:38:03.114Z,1.42
2019-02-18T05:39:03.025Z,1.52
2019-02-18T05:40:03.031Z,1.57
2019-02-18T05:41:03.003Z,1.55
2019-02-18T05:42:03.001Z,1.54
2019-02-18T05:43:02.988Z,1.72
2019-02-18T05:44:02.979Z,1.61
2019-02-18T05:45:02.963Z,1.65
2019-02-18T05:46:02.954Z,1.64
2019-02-18T05:47:02.944Z,1.61
2019-02-18T05:48:02.933Z,1.57
2019-02-18T05:49:02.919Z,1.68
2019-02-18T05:50:02.911Z,1.54
2019-02-18T05:51:02.897Z,1.57
2019-02-18T05:52:02.905Z,1.68
2019-02-18T05:53:02.876Z,1.50
2019-02-18T05:54:02.870Z,1.60
2019-02-18T05:55:02.853Z,1.54
2019-02-18T05:56:02.885Z,1.55
2019-02-18T05:57:02.833Z,1.54
2019-02-18T05:58:02.822Z,1.46
2019-02-18T05:59:02.813Z,1.55
2019-02-18T06:00:02.798Z,1.42
2019-02-18T06:01:02.790Z,1.46
2019-02-18T06:02:02.778Z,1.51
2019-02-18T06:03:02.766Z,1.43
2019-02-18T06:04:02.756Z,1.44
2019-02-18T06:05:02.749Z,1.46
2019-02-18T06:06:02.735Z,1.46
2019-02-18T06:07:02.725Z,1.40
2019-02-18T06:08:02.715Z,1.42
2019-02-18T06:09:02.702Z,1.51
2019-02-18T06:10:02.691Z,1.40
2019-02-18T06:11:02.684Z,1.46
2019-02-18T06:12:02.669Z,1.50
2019-02-18T06:13:02.658Z,1.40
2019-02-18T06:14:02.646Z,1.34
2019-02-18T06:15:02.637Z,1.39
2019-02-18T06:16:02.629Z,1.37
2019-02-18T06:17:02.943Z,1.40
2019-02-18T06:18:02.603Z,1.40
2019-02-18T06:19:02.593Z,1.39
2019-02-18T06:20:02.582Z,1.40
2019-02-18T06:21:02.572Z,1.42
2019-02-18T06:22:02.560Z,1.51
2019-02-18T06:23:02.551Z,1.42
2019-02-18T06:24:02.538Z,1.51
2019-02-18T06:25:02.529Z,1.44
2019-02-18T06:26:02.520Z,1.42
2019-02-18T06:27:02.507Z,1.40
2019-02-18T06:28:04.884Z,1.43
2019-02-18T06:29:02.484Z,1.44
2019-02-18T06:30:02.480Z,1.46
2019-02-18T06:31:02.462Z,1.44
2019-02-18T06:32:02.453Z,1.42
2019-02-18T06:33:02.447Z,1.39
2019-02-18T06:34:02.433Z,1.43
2019-02-18T06:35:02.419Z,1.51
2019-02-18T06:36:02.407Z,1.46
2019-02-18T06:37:02.399Z,1.46
2019-02-18T06:38:02.393Z,1.37
2019-02-18T06:39:02.380Z,1.43
2019-02-18T06:40:02.368Z,1.43
2019-02-18T06:41:02.354Z,1.43
2019-02-18T06:42:02.342Z,1.43
2019-02-18T06:43:02.331Z,1.58
2019-02-18T06:44:02.323Z,1.58
2019-02-18T06:45:02.312Z,1.54
2019-02-18T06:46:02.299Z,1.44
2019-02-18T06:47:02.293Z,1.57
2019-02-18T06:48:02.276Z,1.55
2019-02-18T06:49:02.266Z,1.52
2019-02-18T06:50:02.257Z,1.62
2019-02-18T06:51:02.250Z,1.47
2019-02-18T06:52:02.238Z,1.54
2019-02-18T06:53:02.223Z,1.54
2019-02-18T06:54:02.212Z,1.64
2019-02-18T06:55:02.201Z,1.64
2019-02-18T06:56:02.189Z,1.69
2019-02-18T06:57:02.179Z,1.65
2019-02-18T06:58:02.167Z,1.64
2019-02-18T06:59:02.156Z,1.83
2019-02-18T07:00:02.145Z,1.75
2019-02-18T07:01:02.134Z,1.78
2019-02-18T07:02:02.121Z,1.79
2019-02-18T07:03:02.112Z,1.80
2019-02-18T07:04:02.100Z,1.75
2019-02-18T07:05:02.093Z,1.76
2019-02-18T07:06:02.078Z,1.72
2019-02-18T07:07:02.067Z,1.76
2019-02-18T07:08:02.058Z,1.85
2019-02-18T07:09:02.045Z,1.82
2019-02-18T07:10:02.044Z,1.85
2019-02-18T07:11:02.029Z,1.83
2019-02-18T07:12:02.023Z,2.02
2019-02-18T07:13:02.001Z,1.82
2019-02-18T07:14:01.991Z,1.76
2019-02-18T07:15:01.978Z,1.83
2019-02-18T07:16:01.973Z,1.85
2019-02-18T07:17:01.959Z,1.80
2019-02-18T07:18:01.948Z,1.83
2019-02-18T07:19:01.936Z,1.87
2019-02-18T07:20:01.928Z,1.87
2019-02-18T07:21:01.913Z,1.75
2019-02-18T07:22:01.903Z,1.90
2019-02-18T07:23:01.893Z,1.97
2019-02-18T07:24:01.882Z,1.97
2019-02-18T07:25:01.878Z,2.04
2019-02-18T07:26:01.863Z,1.94
2019-02-18T07:27:01.851Z,2.09
2019-02-18T07:28:01.836Z,2.04
2019-02-18T07:29:01.826Z,2.16
2019-02-18T07:30:01.814Z,2.26
2019-02-18T07:31:01.875Z,2.16
2019-02-18T07:32:01.795Z,2.22
2019-02-18T07:33:01.783Z,2.26
2019-02-18T07:34:01.772Z,2.27
2019-02-18T07:35:01.762Z,2.23
2019-02-18T07:36:01.750Z,2.19
2019-02-18T07:37:01.739Z,2.23
2019-02-18T07:38:01.726Z,2.30
2019-02-18T07:39:01.716Z,2.38
2019-02-18T07:40:02.394Z,2.33
2019-02-18T07:41:01.695Z,2.45
2019-02-18T07:42:01.681Z,2.40
2019-02-18T07:43:01.674Z,2.48
2019-02-18T07:44:01.660Z,2.46
2019-02-18T07:45:01.649Z,2.49
2019-02-18T07:46:01.637Z,2.46
2019-02-18T07:47:01.636Z,2.51
2019-02-18T07:48:01.617Z,2.55
2019-02-18T07:49:01.607Z,2.58
2019-02-18T07:50:01.597Z,2.53
2019-02-18T07:51:01.583Z,2.61
2019-02-18T07:52:01.575Z,2.59
2019-02-18T07:53:01.561Z,2.63
2019-02-18T07:54:19.696Z,2.66
2019-02-18T07:55:43.087Z,2.67
2019-02-18T07:56:43.075Z,2.81
2019-02-18T07:57:43.065Z,2.76
2019-02-18T07:58:43.055Z,2.82
2019-02-18T07:59:43.056Z,2.84
2019-02-18T08:00:43.035Z,2.88
2019-02-18T08:01:43.020Z,2.97
2019-02-18T08:02:43.027Z,2.94
2019-02-18T08:03:43.000Z,2.95
2019-02-18T08:04:43.023Z,3.13
2019-02-18T08:05:43.041Z,3.07
2019-02-18T08:06:42.966Z,3.12
2019-02-18T08:07:42.958Z,3.16
2019-02-18T08:08:42.944Z,3.27
2019-02-18T08:09:42.931Z,3.23
2019-02-18T08:10:42.925Z,3.23
2019-02-18T08:11:42.923Z,3.15
2019-02-18T08:12:42.904Z,3.24
2019-02-18T08:13:42.889Z,3.28
2019-02-18T08:14:42.881Z,3.39
2019-02-18T08:15:42.866Z,3.43
2019-02-18T08:16:42.859Z,3.46
2019-02-18T08:17:42.846Z,3.52
2019-02-18T08:18:42.834Z,3.57
2019-02-18T08:19:42.821Z,3.58
2019-02-18T08:20:42.811Z,3.70
2019-02-18T08:21:42.799Z,3.75
2019-02-18T08:22:42.798Z,3.89
2019-02-18T08:23:42.795Z,4.06
2019-02-18T08:24:42.789Z,3.96
2019-02-18T08:25:42.756Z,4.15
2019-02-18T08:26:44.180Z,4.19
2019-02-18T08:27:42.739Z,4.36
2019-02-18T08:28:42.723Z,4.37
2019-02-18T08:29:42.725Z,4.51
2019-02-18T08:30:42.731Z,4.61
2019-02-18T08:31:42.714Z,4.72
2019-02-18T08:32:42.697Z,4.84
2019-02-18T08:33:42.691Z,5.05
2019-02-18T08:34:42.677Z,5.05
2019-02-18T08:35:42.667Z,5.20
2019-02-18T08:36:42.689Z,5.25
2019-02-18T08:37:42.645Z,5.52
2019-02-18T08:38:42.629Z,5.66
2019-02-18T08:39:42.634Z,5.92
2019-02-18T08:40:42.621Z,6.09
2019-02-18T08:41:42.598Z,6.36
2019-02-18T08:42:42.594Z,6.44
2019-02-18T08:43:42.575Z,6.65
2019-02-18T08:44:42.573Z,6.97
2019-02-18T08:45:42.560Z,7.26
2019-02-18T08:46:42.539Z,7.44
2019-02-18T08:47:42.537Z,7.77
2019-02-18T08:48:42.526Z,7.85
2019-02-18T08:49:42.505Z,8.04
2019-02-18T08:50:42.492Z,8.37
2019-02-18T08:51:42.530Z,8.51
2019-02-18T08:52:42.496Z,8.62
2019-02-18T08:53:42.473Z,8.76
2019-02-18T08:54:42.442Z,8.96
2019-02-18T08:55:42.440Z,9.12
2019-02-18T08:56:42.426Z,9.23
2019-02-18T08:57:42.430Z,9.32
2019-02-18T08:58:42.421Z,9.39
2019-02-18T08:59:42.414Z,9.49
2019-02-18T09:00:42.403Z,9.50
2019-02-18T09:01:42.391Z,9.48
2019-02-18T09:02:42.376Z,9.21
2019-02-18T09:03:42.358Z,8.87
2019-02-18T09:04:42.340Z,8.65
2019-02-18T09:05:42.346Z,8.33
2019-02-18T09:06:42.343Z,8.22
2019-02-18T09:07:42.297Z,8.04
2019-02-18T09:08:42.297Z,8.10
2019-02-18T09:09:42.296Z,8.25
2019-02-18T09:10:42.293Z,8.62
2019-02-18T09:11:42.274Z,8.88
2019-02-18T09:12:42.271Z,9.18
2019-02-18T09:13:42.247Z,9.30
2019-02-18T09:14:42.216Z,9.27
2019-02-18T09:15:42.227Z,9.56
2019-02-18T09:16:42.221Z,9.94
2019-02-18T09:17:42.210Z,10.47
2019-02-18T09:18:42.198Z,10.98
2019-02-18T09:19:42.182Z,11.54
2019-02-18T09:20:42.188Z,11.99
2019-02-18T09:21:42.158Z,12.46
2019-02-18T09:22:42.151Z,12.87
2019-02-18T09:23:42.154Z,13.25
2019-02-18T09:24:42.125Z,13.41
2019-02-18T09:25:43.470Z,13.89
2019-02-18T09:26:42.111Z,14.31
2019-02-18T09:27:42.102Z,14.68
2019-02-18T09:28:42.094Z,14.80
2019-02-18T09:29:42.072Z,14.83
2019-02-18T09:30:42.065Z,15.02
2019-02-18T09:31:42.910Z,15.23
2019-02-18T09:32:42.046Z,15.27
2019-02-18T09:33:42.035Z,15.39
2019-02-18T09:34:42.012Z,15.54
2019-02-18T09:35:42.037Z,15.68
2019-02-18T09:36:41.991Z,15.88
2019-02-18T09:37:41.998Z,15.94
2019-02-18T09:38:41.950Z,16.03
2019-02-18T09:39:41.960Z,16.07
2019-02-18T09:40:44.685Z,16.06
2019-02-18T09:41:42.921Z,16.15
2019-02-18T09:42:41.906Z,16.20
2019-02-18T09:43:41.894Z,16.09
2019-02-18T09:44:41.885Z,16.26
2019-02-18T09:45:41.874Z,16.26
2019-02-18T09:46:41.862Z,16.31
2019-02-18T09:47:41.856Z,16.40
2019-02-18T09:48:41.839Z,16.30
2019-02-18T09:49:41.829Z,16.37
2019-02-18T09:50:41.819Z,16.38
2019-02-18T09:51:41.811Z,16.26
2019-02-18T09:52:41.795Z,16.37
2019-02-18T09:53:41.791Z,16.26
2019-02-18T09:54:41.772Z,16.20
2019-02-18T09:55:41.762Z,16.14
2019-02-18T09:56:41.751Z,16.25
2019-02-18T09:57:41.741Z,16.44
2019-02-18T09:58:41.729Z,16.35
2019-02-18T09:59:41.717Z,16.40
2019-02-18T10:00:41.712Z,16.33
2019-02-18T10:01:43.301Z,16.38
2019-02-18T10:02:59.835Z,16.37
2019-02-18T10:04:12.150Z,16.42
2019-02-18T10:05:12.135Z,16.38
2019-02-18T10:06:55.006Z,15.97
2019-02-18T10:07:53.659Z,15.38
2019-02-18T10:09:35.193Z,14.20
2019-02-18T10:10:35.182Z,13.88
2019-02-18T10:12:18.654Z,13.56
2019-02-18T10:13:16.707Z,13.33
2019-02-18T10:14:47.174Z,13.07
2019-02-18T10:15:47.159Z,12.89
2019-02-18T10:17:28.696Z,12.75
2019-02-18T10:18:28.681Z,12.70
2019-02-18T10:20:10.217Z,12.62
2019-02-18T10:21:10.203Z,12.60
2019-02-18T10:22:51.743Z,12.39
2019-02-18T10:23:51.728Z,12.41
2019-02-18T10:25:33.264Z,12.31
2019-02-18T10:26:33.251Z,12.21
2019-02-18T10:28:15.798Z,12.11
2019-02-18T10:29:15.784Z,12.20
2019-02-18T10:30:57.327Z,12.16
2019-02-18T10:31:57.329Z,12.13
2019-02-18T10:32:57.299Z,12.13
2019-02-18T10:33:57.286Z,12.04
2019-02-18T10:34:57.278Z,12.01
2019-02-18T10:35:57.266Z,11.97
2019-02-18T10:36:57.254Z,12.05
2019-02-18T10:37:57.244Z,11.90
2019-02-18T10:38:57.230Z,11.94
2019-02-18T10:39:57.220Z,11.94
2019-02-18T10:41:06.487Z,12.02
2019-02-18T10:41:58.197Z,12.04
2019-02-18T10:42:57.188Z,12.01
2019-02-18T10:43:57.175Z,12.06
2019-02-18T10:44:57.165Z,12.05
2019-02-18T10:45:57.152Z,12.05
2019-02-18T10:46:57.141Z,12.05
2019-02-18T10:47:57.145Z,11.97
2019-02-18T10:48:57.119Z,12.05
2019-02-18T10:49:57.108Z,12.13
2019-02-18T10:50:57.098Z,12.05
2019-02-18T10:51:57.085Z,11.96
2019-02-18T10:52:57.078Z,12.16
2019-02-18T10:53:57.065Z,12.15
2019-02-18T10:54:57.052Z,12.19
2019-02-18T10:55:57.044Z,12.26
2019-02-18T10:56:57.030Z,12.27
2019-02-18T10:57:57.018Z,12.29
2019-02-18T10:58:57.009Z,12.26
2019-02-18T10:59:59.223Z,12.16
2019-02-18T11:00:56.985Z,12.13
2019-02-18T11:01:56.974Z,12.15
2019-02-18T11:02:56.969Z,12.16
2019-02-18T11:03:56.954Z,12.19
2019-02-18T11:04:56.943Z,12.11
2019-02-18T11:05:56.930Z,12.08
2019-02-18T11:06:56.920Z,11.96
2019-02-18T11:07:56.907Z,12.08
2019-02-18T11:08:56.897Z,11.97
2019-02-18T11:09:56.886Z,12.05
2019-02-18T11:10:56.880Z,11.99
2019-02-18T11:11:56.861Z,11.99
2019-02-18T11:12:56.851Z,11.89
2019-02-18T11:13:56.844Z,11.90
2019-02-18T11:14:56.828Z,11.93
2019-02-18T11:15:56.820Z,11.86
2019-02-18T11:16:56.807Z,11.93
2019-02-18T11:17:56.793Z,11.87
2019-02-18T11:18:56.784Z,11.94
2019-02-18T11:19:56.776Z,11.94
2019-02-18T11:20:56.760Z,11.96
2019-02-18T11:21:56.750Z,11.93
2019-02-18T11:22:56.738Z,11.93
2019-02-18T11:23:56.727Z,11.86
2019-02-18T11:24:56.718Z,11.85
2019-02-18T11:25:56.705Z,11.85
2019-02-18T11:26:56.701Z,11.82
2019-02-18T11:27:56.694Z,11.86
2019-02-18T11:28:56.672Z,11.85
2019-02-18T11:29:56.660Z,11.82
2019-02-18T11:30:56.653Z,11.80
2019-02-18T11:31:56.639Z,11.89
2019-02-18T11:32:56.629Z,11.83
2019-02-18T11:33:56.622Z,11.74
2019-02-18T11:34:56.604Z,11.86
2019-02-18T11:35:56.593Z,11.86
2019-02-18T11:36:56.590Z,11.80
2019-02-18T11:37:56.571Z,11.77
2019-02-18T11:38:56.560Z,11.70
2019-02-18T11:39:56.550Z,11.68
2019-02-18T11:40:56.537Z,11.68
2019-02-18T11:41:56.525Z,11.71
2019-02-18T11:42:56.513Z,11.67
2019-02-18T11:43:56.504Z,11.77
2019-02-18T11:44:56.491Z,11.75
2019-02-18T11:45:56.482Z,11.67
2019-02-18T11:46:56.469Z,11.72
2019-02-18T11:47:56.458Z,11.75
2019-02-18T11:48:56.447Z,11.71
2019-02-18T11:49:56.438Z,11.67
2019-02-18T11:50:56.424Z,11.67
2019-02-18T11:51:56.413Z,11.62
2019-02-18T11:52:56.407Z,11.62
2019-02-18T11:53:56.391Z,11.71
2019-02-18T11:54:56.379Z,11.82
2019-02-18T11:55:56.371Z,11.86
2019-02-18T11:56:56.357Z,11.87
2019-02-18T11:57:56.364Z,11.90
2019-02-18T11:58:56.337Z,11.93
2019-02-18T11:59:56.323Z,11.86
2019-02-18T12:00:56.313Z,11.90
2019-02-18T12:01:56.302Z,11.89
2019-02-18T12:03:03.650Z,11.85
2019-02-18T12:03:57.277Z,11.89
2019-02-18T12:04:56.269Z,11.93
2019-02-18T12:05:56.254Z,11.89
2019-02-18T12:06:56.244Z,11.85
2019-02-18T12:07:56.232Z,11.90
2019-02-18T12:08:56.223Z,11.93
2019-02-18T12:09:56.212Z,11.89
2019-02-18T12:10:56.207Z,11.94
2019-02-18T12:11:56.189Z,11.94
2019-02-18T12:12:56.176Z,11.90
2019-02-18T12:13:56.193Z,11.93
2019-02-18T12:14:56.155Z,11.97
2019-02-18T12:15:56.142Z,11.96
2019-02-18T12:16:56.138Z,12.08
2019-02-18T12:17:56.120Z,12.11
2019-02-18T12:18:56.109Z,12.26
2019-02-18T12:19:56.107Z,12.26
2019-02-18T12:21:15.712Z,12.39
2019-02-18T12:22:37.627Z,12.59
2019-02-18T12:23:37.613Z,12.64
2019-02-18T12:25:19.151Z,12.69
2019-02-18T12:26:19.137Z,12.60
2019-02-18T12:28:00.698Z,12.62
2019-02-18T12:29:00.666Z,12.57
2019-02-18T12:30:42.697Z,12.67
2019-02-18T12:31:42.685Z,12.67
2019-02-18T12:32:42.675Z,12.57
2019-02-18T12:33:42.664Z,12.62
2019-02-18T12:34:42.653Z,12.62
2019-02-18T12:35:42.642Z,12.57
2019-02-18T12:36:42.631Z,12.59
2019-02-18T12:37:42.619Z,12.63
2019-02-18T12:38:42.606Z,12.57
2019-02-18T12:39:42.597Z,12.56
2019-02-18T12:40:42.588Z,12.54
2019-02-18T12:41:48.609Z,12.52
2019-02-18T12:42:43.562Z,12.66
2019-02-18T12:43:42.551Z,12.66
2019-02-18T12:44:42.542Z,12.63
2019-02-18T12:45:42.529Z,12.60
2019-02-18T12:46:42.518Z,12.66
2019-02-18T12:47:42.509Z,12.67
2019-02-18T12:48:42.501Z,12.66
2019-02-18T12:49:42.487Z,12.59
2019-02-18T12:50:42.474Z,12.62
2019-02-18T12:51:42.465Z,12.67
2019-02-18T12:52:42.451Z,12.67
2019-02-18T12:53:42.441Z,12.71
2019-02-18T12:54:42.430Z,12.71
2019-02-18T12:55:42.418Z,12.69
2019-02-18T12:56:42.407Z,12.74
2019-02-18T12:57:42.398Z,12.77
2019-02-18T12:58:42.384Z,12.77
2019-02-18T12:59:42.422Z,12.60
2019-02-18T13:00:42.364Z,12.67
2019-02-18T13:01:42.354Z,12.60
2019-02-18T13:02:44.738Z,12.62
2019-02-18T13:03:42.333Z,12.70
2019-02-18T13:04:42.327Z,12.64
2019-02-18T13:05:42.329Z,12.74
2019-02-18T13:06:42.297Z,12.67
2019-02-18T13:07:42.288Z,12.75
2019-02-18T13:08:42.277Z,12.71
2019-02-18T13:09:42.262Z,12.78
2019-02-18T13:10:42.252Z,12.71
2019-02-18T13:11:42.246Z,12.71
2019-02-18T13:12:42.233Z,12.77
2019-02-18T13:13:42.219Z,12.74
2019-02-18T13:14:42.206Z,12.85
2019-02-18T13:15:42.199Z,12.84
2019-02-18T13:16:42.192Z,12.77
2019-02-18T13:17:42.793Z,12.66
2019-02-18T13:18:42.165Z,12.81
2019-02-18T13:19:42.153Z,12.63
2019-02-18T13:20:42.140Z,12.67